fechar
X Fechar
X Fechar

X Fechar
foto
Salvar nos Favoritos

X Fechar
foto
Clique e saiba mais
Clique e saiba mais
Clique e saiba mais
Clique e saiba mais
Clique e saiba mais
Clique e saiba mais
Clique e saiba mais

América Sports

Capacete Companhia

RM - Motocross Racing

Edgers Racing

RX Graphics

JPS Racing

Ohlins

DLua Racing

Toro Sports

Clique e saiba mais

> Competição > Mundial de Motocross

3ª etapa - Valkenswaard - Holanda - Classificatórias
Publicado em: 27/03/2016

Max Nagl e Jeffrey Herlings vencem as classificatórias na Holanda
Redação MotoX.com.br: Lucidio Arruda - Fotos: Youthstream

Corridas do MXGP da Europa serão disputadas nesta segunda-feira

Após passar por Catar e Tailândia o Mundial de Motocross 2016 tem sua primeira etapa europeia. Como é tradição, a Holanda recebe o GP num feriado de segunda-feira. As classificatórias rolaram neste domingo e enquanto o piloto da casa Jeffrey Herlings literalmente voou na classe MX2, como esperado, na MXGP o alemão Max Nagl foi o mais rápido nas corridas que definiram a ordem do gate de largada.


Max Nagl

Pela manhã a chuva preparou o terreno arenoso antes do clima melhorar para as principais baterias durante a tarde. O circuito de Valkenswaard já é naturalmente exigente e o percurso fica mais complicado com a degradação da pista provocada pelas categorias extras que correm nessa etapa: a WMX, Europeu MX250 e Europeu MX300 (2 tempos).

E corrida na Europa permite também uma maior participação de pilotos locais nas categorias do Mundial. Tivemos 39 pilotos na MX2 e 36 na MXGP em contraste com os aproximadamente 25 pilotos por categoria nas duas primeiras etapas.

MXGP


Shaun Simpson

A classe principal teve uma animada disputa pela vitória com a liderança inicial de Max Nagl seguido de Kevin Strijbos e Tim Gajser. O belga Strijbos assumiu a ponta na segunda volta enquanto Nagl caia para a terceira posição.

Com a bateria se aproximando da metade Gajser errou cedendo o segundo posto para Nagl. Mais duas voltas e foi a vez de Strijbos cair quando tinha uns três ou quatro segundos de vantagem. Nagl pegou a primeira posição de volta e manteve-se fora do alcance do britânico Shaun Simpson que veio da quarta para a segunda posição.

Romain Febvre começou a corrida em sexto e passou por Antonio Cairoli no início e Gajser a três voltas do fim para ficar completar na terceira posição. O italiano ficou com a quinta posição seguido do seu companheiro de equipe Glenn Coldenhoff. Strijbos, depois de liderar seis voltas, completou em sétimo.

MX2


Largada MX2

Dono da volta mais rápida entre todas as categorias, Jeffrey Herlings dominou a classe MX2 com a facilidade esperada. Abriu nada menos que 36 segundos do segundo colocado Aleksandr Tonkov. Pauls Jonass e Brent van Doninck chegaram a disputar o segundo posto com o russo, mas Doninck caiu e abandonou e Jonass teve de se contentar com o terceiro posto.

Nessa segunda-feira as baterias principais largam entre 8h e 12h (horário de Brasília) com transmissão da MXGP pela Band Sports a partir das 11h.

Os resultados e cronometragem ao vivo podem ser acompanhados no link www.motox.com.br/liveresults/mundialmx/.


Jeffrey Herlings

Vídeos





Resultados

P. Nac MXGP M Tempo Diff Gap Melhor Volta Last Lap
1 DE M. Nagl (12) HUS 24:56.988 +10:39.999 +10:39.999 01:54.345 12: 02:00.403
2 GB S. Simpson (24) KTM 25:04.920 +00:07.932 +00:07.932 01:54.403 12: 01:59.235
3 FR R. Febvre (461) YAM 25:06.655 +00:09.667 +00:01.735 01:54.428 12: 01:59.508
4 SI T. Gajser (243) HON 25:08.568 +00:11.580 +00:01.913 01:53.761 12: 01:59.005
5 IT A. Cairoli (222) KTM 25:09.955 +00:12.967 +00:01.387 01:54.369 12: 01:59.625
6 NL G. Coldenhoff (259) KTM 25:12.582 +00:15.594 +00:02.627 01:54.338 12: 01:59.798
7 BE K. Strijbos (22) SUZ 25:17.387 +00:20.399 +00:04.805 01:53.125 12: 02:01.150
8 RU E. Bobryshev (777) HON 25:20.960 +00:23.972 +00:03.573 01:54.861 12: 02:00.925
9 BE C. Desalle (25) KAW 25:34.069 +00:37.081 +00:13.109 01:56.180 12: 01:58.698
10 BE J. V. Horebeek (89) YAM 25:34.317 +00:37.329 +00:00.248 01:56.403 12: 01:58.403
11 SE F. Bengtsson (11) SUZ 25:41.232 +00:44.244 +00:06.915 01:54.406 12: 02:03.043
12 CH V. Guillod (92) YAM 25:42.007 +00:45.019 +00:00.775 01:57.260 12: 01:59.363
13 EE T. Leok (7) KTM 25:43.515 +00:46.527 +00:01.508 01:57.606 12: 01:59.708
14 GB J. Nicholls (45) HUS 25:55.101 +00:58.113 +00:11.586 01:58.557 12: 02:01.007
15 GB T. Searle (100) KAW 26:00.631 +01:03.643 +00:05.530 01:57.486 12: 02:02.929
16 GB E. Banks-Browne (44) YAM 26:01.880 +01:04.892 +00:01.249 01:58.130 12: 02:01.930
17 IT A. Lupino (77) HON 26:15.411 +01:18.423 +00:13.531 01:58.452 12: 02:03.866
18 FR C. Charlier (23) HUS 26:19.032 +01:22.044 +00:03.621 01:59.442 12: 02:03.960
19 ES J. Butron (17) KTM 26:24.072 +01:27.084 +00:05.040 01:58.486 12: 02:04.186
20 EE H. Kullas (151) KTM 26:25.178 +01:28.190 +00:01.106 01:58.765 12: 02:02.908
21 NZ B. Townley (8) SUZ 26:26.393 +01:29.405 +00:01.215 01:58.474 12: 02:05.347
22 FR M. Potisek (32) YAM 26:26.747 +01:29.759 +00:00.354 01:59.441 12: 02:03.318
23 EE G. Krestinov (37) HON 26:26.923 +01:29.935 +00:00.176 01:59.722 12: 02:04.133
24 FR S. Lenoir (685) HON 26:31.403 +01:34.415 +00:04.480 01:58.925 12: 02:07.609
25 IT D. Philippaerts (19) YAM 26:38.194 +01:41.206 +00:06.791 01:59.534 12: 02:04.435
26 DE A. Heidecke (156) KTM 26:39.532 +01:42.544 +00:01.338 02:00.855 12: 02:03.662
27 FI V. Malin (430) KTM 26:41.184 +01:44.196 +00:01.652 01:59.727 12: 02:03.268
28 LV T. Macuks (50) KAW 26:51.122 +01:54.134 +00:09.938 02:02.018 12: 02:11.955
29 LT A. Jasikonis (177) KAW 27:01.374 +02:04.386 +00:10.252 01:58.595 12: 02:09.925
30 DE D. Ullrich (149) KTM 25:17.035 -1 lap -1 lap 02:02.986 11: 02:12.628
31 GB J. Hutchinson (211) KTM 25:23.530 -1 lap -1 lap 02:01.824 11: 02:05.915
32 ES A. Valentin (920) KAW 25:26.874 -1 lap -1 lap 02:01.745 11: 02:07.912
33 LV D. Ivanovs (600) YAM 25:34.713 -1 lap -1 lap 02:03.719 11: 02:16.307
34 SI K. Gercar (62) HUS 25:49.812 -1 lap -1 lap 02:04.097 11: 02:16.248
35 BE J. Dewulf (212) KTM 19:21.167 -4 laps -4 laps 01:58.809 8: 03:11.331
36 JP K. Yamamoto (400) HON 17:39.608 -5 laps -5 laps 02:03.691 7: 02:32.701

P. Nac MX2 M Tempo Diff Gap Melhor Volta Last Lap
1 NL J. Herlings (84) KTM 24:40.006 +10:39.999 +10:39.999 01:53.167 12: 01:59.136
2 RU A. Tonkov (59) YAM 25:16.009 +00:36.003 +00:36.003 01:56.225 12: 01:59.534
3 LV P. Jonass (41) KTM 25:17.173 +00:37.167 +00:01.164 01:56.392 12: 01:59.632
4 NL C. Vlaanderen (10) KTM 25:30.177 +00:50.171 +00:13.004 01:56.748 12: 02:02.004
5 BG P. Petrov (152) KAW 25:36.265 +00:56.259 +00:06.088 01:57.064 12: 02:01.292
6 FR B. Paturel (6) YAM 25:38.117 +00:58.111 +00:01.852 01:56.842 12: 02:00.508
7 LV R. Justs (95) KTM 25:54.445 +01:14.439 +00:16.328 01:58.312 12: 02:02.673
8 SE A. Östlund (161) YAM 25:56.353 +01:16.347 +00:01.908 01:57.138 12: 02:04.102
9 ES J. Zaragoza (101) HON 26:08.831 +01:28.825 +00:12.478 01:57.863 12: 02:02.761
10 NL F. v. d. Vlist (88) KAW 26:10.872 +01:30.866 +00:02.041 01:57.963 12: 02:03.947
11 RU V. Brylyakov (18) KAW 26:11.451 +01:31.445 +00:00.579 01:59.650 12: 02:01.950
12 IT G. Tropepe (223) HUS 26:12.517 +01:32.511 +00:01.066 01:59.623 12: 02:04.225
13 CH J. Seewer (91) SUZ 26:16.981 +01:36.975 +00:04.464 01:57.777 12: 01:58.543
14 IT M. Cervellin (747) HON 26:24.215 +01:44.209 +00:07.234 02:00.032 12: 02:04.723
15 GB B. Watson (919) HUS 26:28.237 +01:48.231 +00:04.022 02:00.214 12: 02:01.319
16 EE K. Kutsar (132) KTM 26:37.867 +01:57.861 +00:09.630 02:00.739 12: 02:04.110
17 IT S. Bernardini (321) TM 26:46.257 +02:06.251 +00:08.390 01:59.375 12: 02:09.064
18 ES I. L. Olano (66) KTM 24:43.416 -1 lap -1 lap 02:02.104 11: 02:05.569
19 NL D. Pootjes (46) KTM 24:43.641 -1 lap -1 lap 02:01.103 11: 02:03.894
20 US T. Covington (64) HUS 24:45.326 -1 lap -1 lap 01:59.899 11: 02:05.094
21 IT S. Zecchina (40) YAM 24:47.081 -1 lap -1 lap 02:01.132 11: 02:03.728
22 NL L. v. Berkel (107) HUS 24:50.909 -1 lap -1 lap 02:01.337 11: 02:05.964
23 IT D. Bonini (15) HUS 24:51.098 -1 lap -1 lap 02:01.526 11: 02:04.605
24 BE J. Getteman (251) KTM 24:53.294 -1 lap -1 lap 02:00.540 11: 02:05.165
25 BE D. Graulus (71) HON 24:56.397 -1 lap -1 lap 02:02.079 11: 02:05.084
26 FR D. Herbreteau (338) HON 24:58.715 -1 lap -1 lap 02:01.805 11: 02:19.875
27 FR A. Verhaeghe (110) KAW 24:59.493 -1 lap -1 lap 02:02.059 11: 02:05.531
28 EE H. Roosiorg (75) KTM 25:09.472 -1 lap -1 lap 02:02.543 11: 02:06.331
29 PL T. Wysocki (831) KTM 25:25.426 -1 lap -1 lap 02:02.202 11: 02:05.112
30 BE B. Boulard (474) KAW 25:31.002 -1 lap -1 lap 02:04.593 11: 02:15.165
31 NL J. Corneth (79) YAM 25:42.677 -1 lap -1 lap 02:02.085 11: 02:10.928
32 BG I. Petrov (142) KTM 25:42.904 -1 lap -1 lap 02:04.679 11: 02:12.375
33 GB M. Anstie (99) HUS 25:08.108 -2 laps -2 laps 01:57.258 10: 02:02.278
34 DE H. Jacobi (29) HON 20:38.656 -3 laps -3 laps 02:01.615 9: 02:05.671
35 BE B. V. doninck (172) YAM 17:21.401 -4 laps -4 laps 01:55.896 8: 01:57.046
36 IT D. D. Bortoli (43) HUS 20:33.688 -4 laps -4 laps 02:04.403 8: 02:40.778
37 CH C. Valente (14) KTM 19:11.420 -5 laps -5 laps 02:06.246 7: 02:14.924
38 BG M. G. Ivanov (97) KTM 13:50.249 -7 laps -7 laps 02:04.504 5: 03:15.965
39 ES F. M. Vilar (490) YAM 03:14.185 -12 laps -12 laps 10:39.999  






Vídeos MotoX Connect



Acompanhe o MotoX no Facebook

Curso MotoX Ric Raspa
Brasil Racing
JPS Racing

© 2000 - 2017 MotoX MX1 Internet